Time;durP1;ratioP1;P1;durP2;ratioP2;P2;SDS_P1;SDS_P2;PMS_P1;PMS_P2;Temp;Humidity;BMP_temperature;BMP_pressure;BME280_temperature;BME280_humidity;BME280_pressure;Samples;Min_cycle;Max_cycle;Signal;HPM_P1;HPM_P2
2021/01/06 03:47:30;;;;;;;38.63;14.75;;;1.40;99.90;;;;;;5104150;23;90789;-85
2021/01/06 03:49:55;;;;;;;;;;;1.50;99.90;;;;;;4972717;28;88426;-85
2021/01/06 03:52:37;;;;;;;33.03;13.02;;;1.50;99.90;;;;;;4986223;28;86283;-86
2021/01/06 03:55:09;;;;;;;36.70;13.77;;;1.50;99.90;;;;;;4992846;28;86251;-84
2021/01/06 03:57:35;;;;;;;37.38;13.02;;;1.50;99.90;;;;;;4971343;28;89952;-83
2021/01/06 04:00:21;;;;;;;33.10;13.60;;;1.50;99.90;;;;;;4978963;28;88799;-84
2021/01/06 04:02:52;;;;;;;36.38;14.55;;;1.50;99.90;;;;;;4980989;28;86447;-84
2021/01/06 04:05:19;;;;;;;37.95;14.68;;;1.50;99.90;;;;;;4995517;28;86090;-86
2021/01/06 04:07:49;;;;;;;38.33;14.32;;;1.50;99.90;;;;;;4993256;28;87460;-85
2021/01/06 04:10:33;;;;;;;35.47;14.15;;;1.40;99.90;;;;;;4973036;28;86892;-85
2021/01/06 04:12:59;;;;;;;41.55;14.07;;;1.40;99.90;;;;;;4983849;28;87754;-84
2021/01/06 04:15:25;;;;;;;40.53;14.15;;;1.40;99.90;;;;;;4996948;28;87173;-83
2021/01/06 04:17:54;;;;;;;35.35;13.95;;;1.40;99.90;;;;;;5005295;28;87620;-83
2021/01/06 04:20:30;;;;;;;40.15;15.05;;;1.40;99.90;;;;;;5014988;28;89352;-83
2021/01/06 04:22:58;;;;;;;35.60;14.32;;;1.30;99.90;;;;;;5011791;28;86826;-83
2021/01/06 04:25:31;;;;;;;37.65;13.20;;;1.30;99.90;;;;;;5003697;28;86739;-86
2021/01/06 04:28:04;;;;;;;38.25;13.80;;;1.30;99.90;;;;;;4982271;28;87614;-86
2021/01/06 04:30:38;;;;;;;40.35;14.88;;;1.40;99.90;;;;;;5011110;28;86084;-84
2021/01/06 04:33:26;;;;;;;39.50;15.68;;;1.30;99.90;;;;;;4991072;28;86455;-84
2021/01/06 04:35:54;;;;;;;33.60;12.77;;;1.30;99.90;;;;;;4997884;28;87201;-85
2021/01/06 04:38:26;;;;;;;39.38;15.30;;;1.30;99.90;;;;;;4997724;28;88677;-84
2021/01/06 04:40:59;;;;;;;34.22;13.80;;;1.30;99.90;;;;;;4990202;28;88291;-87
2021/01/06 04:43:40;;;;;;;42.30;14.02;;;1.30;99.90;;;;;;4970975;28;86943;-86
2021/01/06 04:46:16;;;;;;;;;;;1.30;99.90;;;;;;4996701;28;86758;-86
2021/01/06 04:48:54;;;;;;;38.67;14.55;;;1.30;99.90;;;;;;4982947;28;88101;-86
2021/01/06 04:51:30;;;;;;;42.03;14.43;;;1.30;99.90;;;;;;5004757;28;87087;-86
2021/01/06 04:54:23;;;;;;;37.55;14.48;;;1.30;99.90;;;;;;5009127;28;86574;-86
2021/01/06 04:56:58;;;;;;;35.50;14.05;;;1.40;99.90;;;;;;5005582;28;86199;-86
2021/01/06 05:00:01;;;;;;;36.25;13.27;;;1.40;99.90;;;;;;4990315;28;87713;-85
2021/01/06 05:03:01;;;;;;;36.47;13.02;;;1.40;99.90;;;;;;4993364;28;87128;-86
2021/01/06 05:05:53;;;;;;;39.53;14.05;;;1.30;99.90;;;;;;4998081;28;88006;-86
2021/01/06 05:08:38;;;;;;;39.00;13.82;;;1.30;99.90;;;;;;5005410;28;86984;-86
2021/01/06 05:11:24;;;;;;;36.22;14.65;;;1.30;99.90;;;;;;5007239;28;87644;-85
2021/01/06 05:14:09;;;;;;;38.03;14.18;;;1.30;99.90;;;;;;5000876;28;87101;-85
2021/01/06 05:16:40;;;;;;;39.85;14.18;;;1.30;99.90;;;;;;4984608;28;86825;-86
2021/01/06 05:19:20;;;;;;;33.08;13.23;;;1.30;99.90;;;;;;4999324;28;86803;-86
2021/01/06 05:21:47;;;;;;;37.10;14.85;;;;;;;;;;5003096;28;87102;-86
2021/01/06 05:24:39;;;;;;;39.25;14.90;;;1.40;99.90;;;;;;5002594;28;87525;-86
2021/01/06 05:27:13;;;;;;;36.67;15.93;;;1.40;99.90;;;;;;4996709;28;86254;-86
2021/01/06 05:29:49;;;;;;;38.00;15.65;;;1.40;99.90;;;;;;5004482;28;86193;-86
2021/01/06 05:32:39;;;;;;;41.70;15.73;;;1.40;99.90;;;;;;4991530;28;88556;-86
2021/01/06 05:35:14;;;;;;;39.70;14.50;;;1.40;99.90;;;;;;4979049;28;87268;-85
2021/01/06 05:37:40;;;;;;;38.55;13.75;;;1.40;99.90;;;;;;4996933;28;86956;-86
2021/01/06 05:40:09;;;;;;;41.90;14.25;;;1.40;99.90;;;;;;5004455;28;86320;-86
2021/01/06 05:42:48;;;;;;;40.80;13.90;;;1.40;99.90;;;;;;4996468;28;86542;-86
2021/01/06 05:45:15;;;;;;;40.17;14.38;;;1.20;99.90;;;;;;5002652;28;86727;-85
2021/01/06 05:47:46;;;;;;;42.53;15.10;;;1.20;99.90;;;;;;5010313;28;86878;-86
2021/01/06 05:50:18;;;;;;;43.15;15.48;;;1.10;99.90;;;;;;5008697;28;85581;-86
2021/01/06 05:52:52;;;;;;;40.90;14.85;;;1.10;99.90;;;;;;4994020;28;88927;-86
2021/01/06 05:55:19;;;;;;;41.33;15.07;;;1.10;99.90;;;;;;5006470;28;87528;-84
2021/01/06 05:58:10;;;;;;;44.30;16.48;;;1.20;99.90;;;;;;5008849;28;87922;-86
2021/01/06 06:00:52;;;;;;;43.33;16.65;;;1.20;99.90;;;;;;4999198;28;87132;-86
2021/01/06 06:03:31;;;;;;;39.00;16.15;;;1.20;99.90;;;;;;5006254;28;87136;-85
2021/01/06 06:06:36;;;;;;;39.97;15.43;;;1.20;99.90;;;;;;5006284;28;88976;-86
2021/01/06 06:09:09;;;;;;;34.60;13.40;;;1.20;99.90;;;;;;5008672;28;86901;-87
2021/01/06 06:11:54;;;;;;;38.47;15.15;;;1.20;99.90;;;;;;4995439;28;86923;-86
2021/01/06 06:14:48;;;;;;;46.05;16.25;;;1.10;99.90;;;;;;4997105;28;87365;-89
2021/01/06 06:17:20;;;;;;;41.65;14.85;;;1.00;99.90;;;;;;5000422;28;87295;-86
2021/01/06 06:20:19;;;;;;;36.10;13.82;;;0.80;99.90;;;;;;5000762;28;86976;-87
2021/01/06 06:23:34;;;;;;;40.65;15.93;;;0.90;99.90;;;;;;5004622;28;86707;-88
2021/01/06 06:26:19;;;;;;;42.17;15.60;;;0.90;99.90;;;;;;4922120;28;90411;-87
2021/01/06 06:28:48;;;;;;;45.25;14.20;;;1.00;99.90;;;;;;4972705;28;89974;-86
2021/01/06 06:31:25;;;;;;;42.95;16.05;;;1.00;99.90;;;;;;5006696;28;86865;-88
2021/01/06 06:33:58;;;;;;;42.13;15.93;;;1.10;99.90;;;;;;5001365;28;86925;-85
2021/01/06 06:36:26;;;;;;;47.30;16.60;;;1.10;99.90;;;;;;4999065;28;88114;-86
2021/01/06 06:38:52;;;;;;;44.33;16.88;;;;;;;;;;4994922;28;87987;-87
2021/01/06 06:41:33;;;;;;;38.00;14.63;;;1.10;99.90;;;;;;5001410;28;86567;-86
2021/01/06 06:44:32;;;;;;;40.05;15.88;;;1.10;99.90;;;;;;5005286;28;86160;-86
2021/01/06 06:47:13;;;;;;;36.33;15.32;;;1.10;99.90;;;;;;4991538;28;87376;-85
2021/01/06 06:50:01;;;;;;;43.92;16.27;;;1.10;99.90;;;;;;5006898;28;87083;-86
2021/01/06 06:52:33;;;;;;;44.55;15.98;;;1.10;99.90;;;;;;4994265;28;87817;-86
2021/01/06 06:55:53;;;;;;;36.92;15.35;;;1.00;99.90;;;;;;5007741;28;86884;-86
2021/01/06 06:58:31;;;;;;;41.63;14.60;;;0.90;99.90;;;;;;4906374;28;87727;-86
2021/01/06 07:00:58;;;;;;;41.55;15.25;;;0.90;99.90;;;;;;4996902;28;88590;-86
2021/01/06 07:03:28;;;;;;;47.47;16.77;;;0.80;99.90;;;;;;4995811;28;86806;-84
2021/01/06 07:06:01;;;;;;;43.72;15.75;;;0.80;99.90;;;;;;5006491;28;86827;-86
2021/01/06 07:08:31;;;;;;;48.20;17.20;;;0.80;99.90;;;;;;5006826;28;87800;-86
2021/01/06 07:11:22;;;;;;;40.20;16.85;;;0.80;99.90;;;;;;4982247;28;90788;-86
2021/01/06 07:13:58;;;;;;;48.53;17.20;;;0.80;99.90;;;;;;4993801;28;87978;-86
2021/01/06 07:16:32;;;;;;;51.70;16.95;;;0.80;99.90;;;;;;4993402;28;87041;-86
2021/01/06 07:19:16;;;;;;;40.97;14.77;;;0.80;99.90;;;;;;4991641;28;89560;-86
2021/01/06 07:21:41;;;;;;;40.38;15.23;;;0.80;99.90;;;;;;4997450;28;88804;-87
2021/01/06 07:24:07;;;;;;;45.78;17.30;;;0.80;99.90;;;;;;4993349;28;87611;-83
2021/01/06 07:26:57;;;;;;;43.28;17.33;;;0.80;99.90;;;;;;5004875;28;87919;-86
2021/01/06 07:29:31;;;;;;;42.10;16.35;;;0.90;99.90;;;;;;4997509;28;87035;-87
2021/01/06 07:32:12;;;;;;;46.75;17.42;;;0.90;99.90;;;;;;5001705;28;86857;-85
2021/01/06 07:34:44;;;;;;;48.90;16.92;;;1.00;99.90;;;;;;4996421;28;86835;-85
2021/01/06 07:37:38;;;;;;;50.00;19.00;;;1.10;99.90;;;;;;5006010;28;86141;-85
2021/01/06 07:40:15;;;;;;;43.38;16.98;;;1.10;99.90;;;;;;5002106;28;87815;-84
2021/01/06 07:42:43;;;;;;;43.40;17.10;;;1.20;99.90;;;;;;4982929;28;88013;-86
2021/01/06 07:45:32;;;;;;;41.20;17.00;;;1.30;99.90;;;;;;4984510;28;87697;-85
2021/01/06 07:48:20;;;;;;;48.00;17.75;;;1.30;99.90;;;;;;4994738;28;86626;-85
2021/01/06 07:51:02;;;;;;;49.42;19.00;;;1.50;99.90;;;;;;5000656;28;87724;-85
2021/01/06 07:53:46;;;;;;;41.17;16.73;;;1.50;99.90;;;;;;5003693;28;87464;-86
2021/01/06 07:56:25;;;;;;;41.47;14.45;;;1.40;99.90;;;;;;5003712;28;86358;-83
2021/01/06 07:58:57;;;;;;;42.80;16.25;;;1.40;99.90;;;;;;4998584;28;86386;-84
2021/01/06 08:01:47;;;;;;;45.47;16.75;;;1.40;99.90;;;;;;4996893;28;90881;-81
2021/01/06 08:04:35;;;;;;;41.05;15.68;;;1.50;99.90;;;;;;4996059;28;90745;-82
2021/01/06 08:07:07;;;;;;;41.10;15.88;;;1.50;99.90;;;;;;5016176;28;86076;-81
2021/01/06 08:09:41;;;;;;;49.13;15.80;;;1.50;99.90;;;;;;5013185;28;86956;-86
2021/01/06 08:12:42;;;;;;;44.78;16.60;;;1.50;99.90;;;;;;5004151;28;88717;-84
2021/01/06 08:15:17;;;;;;;38.53;15.60;;;1.70;99.90;;;;;;4985900;28;92140;-85
2021/01/06 08:18:20;;;;;;;41.33;15.93;;;1.70;99.90;;;;;;4997874;28;86853;-83
2021/01/06 08:21:03;;;;;;;42.92;15.50;;;1.80;99.90;;;;;;4983363;28;86879;-86
2021/01/06 08:24:10;;;;;;;45.85;16.70;;;1.80;99.90;;;;;;5007852;28;86889;-86
2021/01/06 08:26:46;;;;;;;39.38;15.02;;;1.80;99.90;;;;;;5000443;28;87137;-84
2021/01/06 08:29:26;;;;;;;47.38;16.92;;;1.70;99.90;;;;;;4997495;28;86741;-84
2021/01/06 08:31:57;;;;;;;39.38;15.63;;;1.70;99.90;;;;;;5001766;28;85903;-84
2021/01/06 08:34:34;;;;;;;45.05;16.98;;;1.80;99.90;;;;;;5005722;28;87022;-82
2021/01/06 08:37:07;;;;;;;38.83;14.93;;;1.90;99.90;;;;;;4983367;28;87143;-83
2021/01/06 08:39:53;;;;;;;39.83;16.90;;;1.60;99.90;;;;;;4990651;28;87430;-83
2021/01/06 08:42:24;;;;;;;41.40;17.23;;;2.10;99.90;;;;;;4979948;28;86565;-83
2021/01/06 08:44:59;;;;;;;47.97;18.55;;;1.80;99.90;;;;;;5000023;28;88248;-87
2021/01/06 08:47:30;;;;;;;38.03;16.70;;;2.20;99.90;;;;;;4997899;28;86933;-85
2021/01/06 08:50:11;;;;;;;38.35;17.70;;;1.50;99.90;;;;;;5003366;28;86738;-86
2021/01/06 08:52:37;;;;;;;34.80;15.40;;;2.00;99.90;;;;;;4997711;28;86695;-87
2021/01/06 08:55:29;;;;;;;33.08;14.70;;;2.10;99.90;;;;;;4979045;28;89333;-87
2021/01/06 08:58:04;;;;;;;36.40;15.38;;;2.10;99.90;;;;;;4995966;28;87483;-87
2021/01/06 09:00:36;;;;;;;38.20;15.43;;;2.20;99.90;;;;;;4995797;28;86919;-85
2021/01/06 09:03:13;;;;;;;38.35;16.70;;;2.60;99.90;;;;;;4996023;28;86757;-88
2021/01/06 09:05:49;;;;;;;34.33;14.13;;;2.10;99.90;;;;;;4993486;28;88634;-86
2021/01/06 09:08:18;;;;;;;40.28;16.88;;;2.40;99.90;;;;;;4998963;28;89145;-86
2021/01/06 09:11:08;;;;;;;33.75;15.45;;;2.20;99.90;;;;;;4996360;28;86201;-84
2021/01/06 09:14:14;;;;;;;39.47;15.10;;;2.10;99.90;;;;;;4997739;28;87219;-83
2021/01/06 09:16:53;;;;;;;33.35;13.32;;;1.80;99.90;;;;;;5001080;28;87903;-86
2021/01/06 09:19:45;;;;;;;36.00;14.52;;;2.10;99.90;;;;;;4986042;28;90374;-88
2021/01/06 09:22:13;;;;;;;41.08;15.80;;;2.00;99.90;;;;;;4997143;28;86931;-87
2021/01/06 09:24:40;;;;;;;37.13;15.95;;;2.00;99.90;;;;;;5008817;28;85626;-84
2021/01/06 09:27:31;;;;;;;45.80;17.30;;;2.00;99.90;;;;;;5010345;28;88247;-87
2021/01/06 09:30:02;;;;;;;39.05;16.25;;;2.00;99.90;;;;;;4998449;28;87672;-85
2021/01/06 09:32:38;;;;;;;38.70;15.80;;;2.00;99.90;;;;;;5002313;28;87939;-83
2021/01/06 09:35:11;;;;;;;41.28;16.20;;;2.00;99.90;;;;;;4992209;28;87295;-86
2021/01/06 09:37:42;;;;;;;39.00;15.43;;;2.00;99.90;;;;;;5007798;28;87661;-85
2021/01/06 09:40:16;;;;;;;36.33;16.52;;;2.10;99.90;;;;;;5001090;28;88116;-85
2021/01/06 09:42:45;;;;;;;33.95;14.85;;;2.10;99.90;;;;;;5002168;28;87004;-86
2021/01/06 09:45:23;;;;;;;35.78;13.85;;;2.10;99.90;;;;;;5005606;28;86952;-85
2021/01/06 09:47:54;;;;;;;30.70;11.85;;;2.20;99.90;;;;;;4981426;28;89950;-85
2021/01/06 09:50:52;;;;;;;42.13;16.48;;;2.10;99.90;;;;;;5004989;28;86690;-84
2021/01/06 09:53:22;;;;;;;37.60;15.93;;;2.20;99.90;;;;;;5001340;28;86857;-87
2021/01/06 09:55:50;;;;;;;41.17;17.15;;;2.30;99.90;;;;;;5000758;28;87247;-83
2021/01/06 09:58:30;;;;;;;36.58;16.73;;;2.10;99.90;;;;;;5002669;28;89637;-85
2021/01/06 10:01:09;;;;;;;35.60;14.50;;;2.30;99.90;;;;;;5002239;28;89507;-86
2021/01/06 10:03:37;;;;;;;39.67;16.75;;;2.50;99.90;;;;;;5000335;28;86946;-83
2021/01/06 10:06:46;;;;;;;40.67;14.82;;;2.60;99.90;;;;;;4999060;28;87134;-87
2021/01/06 10:09:20;;;;;;;32.53;14.35;;;2.20;99.40;;;;;;4986845;28;86859;-87
2021/01/06 10:11:58;;;;;;;34.90;14.65;;;2.20;99.60;;;;;;5006329;28;87790;-83
2021/01/06 10:14:36;;;;;;;35.58;14.30;;;2.20;99.90;;;;;;4992169;28;86437;-85
2021/01/06 10:17:08;;;;;;;34.97;14.75;;;2.10;99.90;;;;;;4999729;28;87800;-85
2021/01/06 10:19:39;;;;;;;30.40;12.95;;;1.90;99.30;;;;;;5008284;28;87785;-84
2021/01/06 10:22:11;;;;;;;;;;;1.90;99.50;;;;;;5021207;28;87006;-86
2021/01/06 10:24:41;;;;;;;32.92;14.63;;;2.10;98.70;;;;;;5010071;28;87804;-84
2021/01/06 10:27:35;;;;;;;32.60;15.23;;;1.80;98.60;;;;;;4999838;28;87211;-86
2021/01/06 10:30:17;;;;;;;31.15;12.88;;;2.10;98.70;;;;;;4990722;28;87538;-85
2021/01/06 10:32:46;;;;;;;28.83;13.32;;;;;;;;;;5023243;28;87455;-86
2021/01/06 10:35:30;;;;;;;34.53;14.85;;;2.20;97.50;;;;;;5020611;28;86274;-85
2021/01/06 10:37:58;;;;;;;38.30;16.52;;;2.30;97.60;;;;;;5012382;28;86845;-87
2021/01/06 10:40:36;;;;;;;36.08;14.70;;;2.50;96.70;;;;;;5008091;28;86848;-83
2021/01/06 10:43:34;;;;;;;38.13;13.65;;;2.70;96.70;;;;;;4999192;28;87555;-85
2021/01/06 10:46:01;;;;;;;33.92;14.63;;;2.50;96.20;;;;;;5002755;28;87140;-84
2021/01/06 10:48:47;;;;;;;35.15;14.68;;;2.90;95.80;;;;;;5001796;28;86988;-87
2021/01/06 10:51:47;;;;;;;32.58;14.02;;;2.90;94.90;;;;;;4984183;28;90771;-86
2021/01/06 10:54:16;;;;;;;29.88;14.82;;;3.00;94.50;;;;;;4997319;28;89009;-86
2021/01/06 10:56:43;;;;;;;36.15;14.52;;;3.20;95.20;;;;;;4983930;28;86340;-85
2021/01/06 10:59:15;;;;;;;35.78;15.45;;;3.20;94.40;;;;;;5006057;28;86823;-86
2021/01/06 11:01:41;;;;;;;35.83;16.13;;;;;;;;;;5009307;28;86896;-86
2021/01/06 11:04:40;;;;;;;37.95;17.58;;;3.60;94.80;;;;;;5004915;28;86904;-87
2021/01/06 11:07:36;;;;;;;43.22;17.60;;;4.00;94.60;;;;;;4967393;28;86904;-86
2021/01/06 11:10:24;;;;;;;36.00;17.98;;;4.10;94.30;;;;;;5004772;28;86347;-86
2021/01/06 11:12:55;;;;;;;42.45;18.05;;;4.20;94.20;;;;;;4999325;28;87646;-87
2021/01/06 11:15:30;;;;;;;39.40;17.15;;;4.20;94.50;;;;;;4999866;28;86645;-87
2021/01/06 11:18:14;;;;;;;36.03;16.33;;;4.00;93.10;;;;;;4991318;28;87446;-87
2021/01/06 11:20:42;;;;;;;42.03;18.08;;;4.00;93.20;;;;;;4992733;28;86988;-86
2021/01/06 11:23:26;;;;;;;39.40;17.98;;;4.20;93.40;;;;;;4995994;28;88655;-86
2021/01/06 11:25:58;;;;;;;38.78;18.10;;;4.20;93.70;;;;;;4993722;28;87597;-86
2021/01/06 11:28:27;;;;;;;40.75;18.17;;;4.50;93.80;;;;;;4989012;28;87058;-86
2021/01/06 11:31:22;;;;;;;37.20;16.20;;;4.30;93.90;;;;;;5001737;28;86332;-86
2021/01/06 11:33:55;;;;;;;37.25;15.88;;;4.40;93.60;;;;;;5003202;28;87335;-84
2021/01/06 11:36:33;;;;;;;36.60;16.20;;;4.60;92.80;;;;;;4999615;28;87467;-86
2021/01/06 11:39:00;;;;;;;38.53;17.15;;;4.60;91.40;;;;;;5001838;28;86554;-85
2021/01/06 11:41:26;;;;;;;37.55;17.30;;;4.80;91.50;;;;;;5006318;28;86814;-86
2021/01/06 11:44:06;;;;;;;37.97;17.13;;;4.70;91.00;;;;;;4996166;28;88713;-86
2021/01/06 11:46:38;;;;;;;34.05;15.90;;;4.50;89.70;;;;;;5001392;28;88810;-86
2021/01/06 11:49:22;;;;;;;36.13;15.98;;;4.60;90.10;;;;;;4989799;28;86929;-87
2021/01/06 11:52:26;;;;;;;35.08;16.25;;;4.50;90.40;;;;;;5008058;28;86877;-87
2021/01/06 11:55:30;;;;;;;34.03;15.60;;;4.70;90.70;;;;;;4974447;28;87877;-86
2021/01/06 11:58:28;;;;;;;31.63;14.35;;;4.90;90.00;;;;;;4934386;28;88727;-87
2021/01/06 12:01:05;;;;;;;28.85;12.82;;;4.70;89.30;;;;;;4988257;28;86973;-85
2021/01/06 12:03:53;;;;;;;32.35;14.30;;;4.30;86.60;;;;;;4983226;28;87719;-85
2021/01/06 12:06:34;;;;;;;26.65;12.88;;;4.60;88.80;;;;;;4994345;28;87816;-85
2021/01/06 12:09:39;;;;;;;28.00;13.75;;;4.20;87.70;;;;;;4990527;28;87197;-85
2021/01/06 12:12:05;;;;;;;32.58;14.32;;;4.10;88.60;;;;;;5003136;28;87443;-85
2021/01/06 12:15:26;;;;;;;28.75;13.68;;;4.10;89.10;;;;;;4979759;28;87161;-85
2021/01/06 12:17:56;;;;;;;31.58;12.88;;;4.10;89.60;;;;;;4919352;28;86983;-85
2021/01/06 12:20:26;;;;;;;28.58;12.57;;;4.20;90.00;;;;;;4913956;28;89081;-85
2021/01/06 12:23:41;;;;;;;27.35;13.20;;;4.30;88.70;;;;;;4979220;28;87041;-85
2021/01/06 12:26:49;;;;;;;24.63;11.85;;;4.20;87.50;;;;;;4881088;28;87063;-87
2021/01/06 12:29:18;;;;;;;25.40;12.07;;;4.10;87.00;;;;;;4991860;28;88590;-85
2021/01/06 12:32:00;;;;;;;26.08;12.82;;;3.90;88.30;;;;;;5002736;28;89470;-86
2021/01/06 12:34:39;;;;;;;29.23;13.63;;;3.90;88.40;;;;;;4992687;28;86995;-85
2021/01/06 12:37:14;;;;;;;30.17;14.00;;;3.80;88.70;;;;;;4997574;28;87316;-85
2021/01/06 12:40:00;;;;;;;30.65;12.48;;;4.10;87.30;;;;;;4999935;28;88807;-84
2021/01/06 12:42:46;;;;;;;31.33;13.10;;;4.10;85.80;;;;;;4996104;28;87667;-86
2021/01/06 12:45:21;;;;;;;34.50;15.48;;;4.40;88.50;;;;;;4990118;28;86586;-85
2021/01/06 12:47:56;;;;;;;34.10;16.27;;;4.50;86.40;;;;;;4991247;28;87163;-85
2021/01/06 12:50:22;;;;;;;31.42;14.85;;;;;;;;;;5000691;28;87773;-85
2021/01/06 12:52:53;;;;;;;31.55;14.70;;;4.80;85.30;;;;;;4991756;28;87454;-84
2021/01/06 12:55:32;;;;;;;28.75;12.52;;;4.90;85.60;;;;;;4996332;28;86889;-86
2021/01/06 12:58:29;;;;;;;27.85;12.90;;;4.80;85.20;;;;;;5002450;28;86041;-85
2021/01/06 13:01:20;;;;;;;28.17;12.93;;;4.30;85.20;;;;;;5003071;28;87651;-86
2021/01/06 13:03:46;;;;;;;30.63;13.15;;;;;;;;;;4933712;28;88318;-85
2021/01/06 13:06:30;;;;;;;27.35;12.48;;;4.30;85.20;;;;;;4979180;28;87803;-86
2021/01/06 13:09:02;;;;;;;35.30;13.15;;;4.40;88.00;;;;;;4996883;28;86818;-85
2021/01/06 13:11:36;;;;;;;27.50;12.35;;;4.30;88.70;;;;;;4996548;28;86814;-85
2021/01/06 13:14:08;;;;;;;29.80;13.55;;;4.30;88.40;;;;;;5001143;28;88120;-86
2021/01/06 13:16:41;;;;;;;32.67;14.77;;;4.10;89.10;;;;;;5004270;28;86698;-85
2021/01/06 13:19:28;;;;;;;28.95;13.38;;;4.00;90.20;;;;;;4993212;28;88350;-86
2021/01/06 13:22:22;;;;;;;42.00;20.38;;;4.10;90.20;;;;;;5000422;28;87945;-86
2021/01/06 13:25:04;;;;;;;34.38;15.32;;;4.10;90.50;;;;;;4978584;28;86621;-86
2021/01/06 13:27:36;;;;;;;31.80;15.57;;;4.30;90.30;;;;;;5008277;28;86195;-86
2021/01/06 13:30:16;;;;;;;33.00;15.27;;;4.20;90.50;;;;;;5001697;28;86613;-86
2021/01/06 13:33:02;;;;;;;34.15;14.75;;;4.20;90.20;;;;;;4988822;28;91172;-86
2021/01/06 13:35:34;;;;;;;29.83;13.80;;;4.30;90.70;;;;;;5007864;28;88422;-86
2021/01/06 13:38:11;;;;;;;28.85;13.30;;;3.90;90.20;;;;;;5004822;28;86718;-86
2021/01/06 13:40:40;;;;;;;34.53;14.38;;;4.10;90.80;;;;;;5003587;28;87094;-85
2021/01/06 13:43:15;;;;;;;29.67;13.75;;;4.00;90.80;;;;;;5001864;28;86664;-86
2021/01/06 13:45:50;;;;;;;28.30;13.38;;;4.00;91.00;;;;;;4998093;28;86859;-85
2021/01/06 13:48:22;;;;;;;31.00;14.68;;;4.00;90.60;;;;;;4999154;28;86257;-86
2021/01/06 13:51:19;;;;;;;30.20;13.48;;;4.00;91.60;;;;;;5002365;28;85644;-86
2021/01/06 13:53:48;;;;;;;29.10;14.35;;;3.80;91.60;;;;;;5005864;28;88950;-85
2021/01/06 13:56:14;;;;;;;35.22;15.23;;;;;;;;;;5003162;28;86800;-84
2021/01/06 13:59:16;;;;;;;35.65;17.63;;;3.60;92.20;;;;;;4993363;28;87824;-85
2021/01/06 14:01:51;;;;;;;35.53;16.80;;;3.60;92.80;;;;;;4982637;28;86892;-85
2021/01/06 14:04:22;;;;;;;31.70;13.93;;;3.50;93.00;;;;;;5000703;28;87365;-85
2021/01/06 14:07:12;;;;;;;32.72;13.50;;;3.30;93.30;;;;;;4995364;28;86560;-85
2021/01/06 14:09:56;;;;;;;28.58;13.57;;;3.30;94.10;;;;;;4992078;28;86869;-84
2021/01/06 14:13:18;;;;;;;28.40;12.38;;;3.30;94.20;;;;;;4999564;28;87040;-86
2021/01/06 14:15:47;;;;;;;32.90;12.88;;;3.20;94.70;;;;;;4910894;28;87990;-86
2021/01/06 14:18:23;;;;;;;30.85;13.02;;;2.70;96.20;;;;;;4899525;28;86395;-84
2021/01/06 14:21:04;;;;;;;32.53;14.85;;;3.10;95.90;;;;;;4955851;28;87056;-86
2021/01/06 14:23:39;;;;;;;31.52;13.77;;;3.10;95.90;;;;;;5011191;28;86897;-86
2021/01/06 14:26:39;;;;;;;26.70;12.93;;;2.90;96.30;;;;;;4996856;28;88509;-86
2021/01/06 14:29:27;;;;;;;34.38;16.17;;;2.90;96.50;;;;;;4993284;28;88415;-84
2021/01/06 14:32:19;;;;;;;32.75;14.32;;;3.10;97.00;;;;;;4999805;28;86885;-86
2021/01/06 14:35:04;;;;;;;28.85;13.15;;;2.90;97.20;;;;;;4998596;28;86706;-86
2021/01/06 14:37:34;;;;;;;34.92;15.95;;;2.70;98.20;;;;;;5010992;28;87673;-86
2021/01/06 14:40:42;;;;;;;33.83;14.18;;;2.70;98.40;;;;;;5012331;28;86440;-85
2021/01/06 14:43:31;;;;;;;30.50;14.60;;;2.50;98.70;;;;;;5016938;28;86751;-83
2021/01/06 14:46:22;;;;;;;32.65;14.50;;;2.50;98.70;;;;;;5003015;28;85984;-83
2021/01/06 14:48:57;;;;;;;27.37;12.10;;;2.40;99.90;;;;;;5009682;28;88355;-85
2021/01/06 14:51:51;;;;;;;37.88;14.88;;;2.30;99.90;;;;;;5008663;28;86201;-83
2021/01/06 14:54:35;;;;;;;30.27;13.57;;;2.20;99.90;;;;;;4998556;28;87734;-83
2021/01/06 14:57:05;;;;;;;33.47;16.52;;;2.10;99.90;;;;;;4996638;28;86724;-84
2021/01/06 14:59:41;;;;;;;32.22;14.20;;;2.10;99.90;;;;;;4985555;28;87738;-85
2021/01/06 15:02:25;;;;;;;27.83;13.57;;;2.10;99.90;;;;;;4996598;28;87555;-84
2021/01/06 15:05:04;;;;;;;32.25;14.48;;;2.10;99.90;;;;;;4999294;28;86797;-86
2021/01/06 15:07:42;;;;;;;32.65;14.85;;;2.10;99.90;;;;;;5006394;28;87030;-82
2021/01/06 15:10:29;;;;;;;32.50;13.80;;;2.10;99.90;;;;;;4998361;28;87422;-83
2021/01/06 15:13:19;;;;;;;31.70;14.65;;;2.10;99.90;;;;;;4993883;28;88337;-86
2021/01/06 15:15:58;;;;;;;32.17;14.43;;;2.20;99.90;;;;;;4972417;28;86755;-86
2021/01/06 15:18:29;;;;;;;34.50;16.02;;;2.20;99.90;;;;;;5005043;28;87061;-84
2021/01/06 15:20:57;;;;;;;;;;;2.20;99.90;;;;;;5000984;28;89178;-85
2021/01/06 15:23:32;;;;;;;34.22;16.17;;;2.30;99.90;;;;;;5010359;28;86979;-85
2021/01/06 15:26:03;;;;;;;33.42;16.00;;;2.60;99.90;;;;;;5005958;28;86850;-84
2021/01/06 15:28:32;;;;;;;;;;;2.50;99.90;;;;;;5003028;28;86790;-86
2021/01/06 15:31:04;;;;;;;31.58;13.63;;;2.70;99.90;;;;;;4990796;28;87429;-85
2021/01/06 15:33:38;;;;;;;36.42;14.85;;;2.60;99.90;;;;;;4997662;28;87078;-83
2021/01/06 15:36:25;;;;;;;36.45;16.20;;;2.00;99.90;;;;;;4996403;28;86784;-85
2021/01/06 15:39:01;;;;;;;33.35;14.57;;;2.30;99.90;;;;;;4991367;28;86301;-86
2021/01/06 15:41:30;;;;;;;33.70;14.30;;;2.50;99.90;;;;;;4988631;28;87210;-86
2021/01/06 15:43:56;;;;;;;38.70;15.43;;;2.40;99.90;;;;;;4974737;28;86928;-85
2021/01/06 15:46:37;;;;;;;29.45;15.45;;;2.50;99.90;;;;;;4978231;28;87606;-84
2021/01/06 15:49:03;;;;;;;26.73;13.00;;;;;;;;;;4980536;28;87178;-84
2021/01/06 15:51:38;;;;;;;34.83;15.63;;;2.30;99.90;;;;;;4975164;28;87181;-85
2021/01/06 15:54:19;;;;;;;30.92;13.93;;;2.30;99.90;;;;;;4981604;28;87425;-84
2021/01/06 15:56:58;;;;;;;37.17;16.23;;;2.30;99.90;;;;;;4969832;28;86856;-87
2021/01/06 15:59:26;;;;;;;35.78;16.63;;;2.20;99.90;;;;;;4987476;28;86183;-83
2021/01/06 16:01:53;;;;;;;43.25;18.08;;;2.20;99.90;;;;;;4973747;28;87396;-86
2021/01/06 16:04:21;;;;;;;41.10;17.13;;;2.20;99.90;;;;;;4961609;28;88579;-86
2021/01/06 16:07:01;;;;;;;40.47;16.48;;;2.20;99.90;;;;;;4967917;28;87377;-83
2021/01/06 16:09:30;;;;;;;45.53;18.42;;;2.20;99.90;;;;;;4952163;28;87451;-83
2021/01/06 16:12:22;;;;;;;43.55;19.52;;;2.50;99.90;;;;;;4985526;28;88218;-83
2021/01/06 16:14:56;;;;;;;44.42;19.25;;;2.40;99.90;;;;;;4970991;28;88585;-83
2021/01/06 16:17:26;;;;;;;46.65;20.60;;;2.20;99.90;;;;;;4991480;28;86108;-84
2021/01/06 16:20:09;;;;;;;52.50;20.38;;;2.20;99.90;;;;;;4984582;28;86804;-83
2021/01/06 16:22:44;;;;;;;41.47;19.08;;;2.30;99.90;;;;;;4999596;28;86438;-84
2021/01/06 16:25:17;;;;;;;48.50;20.98;;;2.30;99.90;;;;;;4992341;28;90236;-86
2021/01/06 16:27:44;;;;;;;53.30;22.25;;;2.80;99.90;;;;;;4987680;28;86838;-84
2021/01/06 16:30:20;;;;;;;47.58;20.92;;;1.90;99.90;;;;;;4996451;28;85919;-86
2021/01/06 16:32:58;;;;;;;42.78;20.33;;;2.30;99.90;;;;;;5000197;28;87937;-82
2021/01/06 16:35:32;;;;;;;46.95;20.48;;;2.10;99.90;;;;;;4987901;28;87230;-82
2021/01/06 16:38:10;;;;;;;48.53;21.67;;;2.00;99.90;;;;;;4995105;28;87092;-86
2021/01/06 16:40:36;;;;;;;55.05;22.27;;;;;;;;;;4987561;28;86537;-85
2021/01/06 16:43:13;;;;;;;45.83;20.50;;;2.00;99.90;;;;;;4970360;28;90547;-86
2021/01/06 16:45:39;;;;;;;38.47;17.88;;;2.00;99.90;;;;;;4969525;28;89018;-85
2021/01/06 16:48:25;;;;;;;44.05;19.55;;;2.00;99.90;;;;;;5003572;28;86794;-86
2021/01/06 16:51:00;;;;;;;41.95;19.77;;;2.10;99.90;;;;;;4985214;28;86617;-85
2021/01/06 16:53:28;;;;;;;43.65;19.10;;;1.90;99.90;;;;;;4994575;28;88117;-84
2021/01/06 16:56:23;;;;;;;45.00;19.15;;;1.90;99.90;;;;;;5008300;28;86688;-83
2021/01/06 16:58:50;;;;;;;52.85;21.00;;;1.90;99.90;;;;;;5004170;28;86458;-86
2021/01/06 17:01:16;;;;;;;49.75;21.58;;;1.90;99.90;;;;;;4999891;28;86908;-88
2021/01/06 17:03:56;;;;;;;44.67;19.77;;;1.70;99.90;;;;;;4972194;28;89645;-87
2021/01/06 17:06:32;;;;;;;50.17;22.15;;;1.70;99.90;;;;;;4991065;28;88734;-83
2021/01/06 17:09:08;;;;;;;46.00;19.08;;;1.60;99.90;;;;;;4998820;28;87235;-88
2021/01/06 17:11:34;;;;;;;50.20;20.65;;;;;;;;;;4994041;28;86153;-89
2021/01/06 17:14:09;;;;;;;51.38;20.95;;;1.90;99.90;;;;;;4994839;28;87850;-85
2021/01/06 17:16:36;;;;;;;46.35;21.73;;;1.90;99.90;;;;;;5003837;28;87280;-87
2021/01/06 17:19:03;;;;;;;54.05;21.02;;;;;;;;;;4997299;28;86674;-87
2021/01/06 17:21:34;;;;;;;39.65;17.90;;;1.90;99.90;;;;;;4997529;28;86220;-87
2021/01/06 17:24:18;;;;;;;54.60;21.95;;;1.90;99.90;;;;;;4991111;28;89945;-88
2021/01/06 17:26:45;;;;;;;51.40;22.67;;;;;;;;;;5003043;28;87483;-88
2021/01/06 17:29:43;;;;;;;49.72;20.70;;;2.00;99.90;;;;;;4993827;28;87572;-88